Details From LIBD - Bari Palese Macchie
To LIML - Milano Linate
Flight Number -
Tags Generated
Created
Modified
Stats Distance 417 nm / 773 km
Max Altitude 0 ft / 0 m
Waypoints 5
Social Downloads 5
Likes 0
Share VATSIM

Download

Looking for another format? Having issues loading an existing format? Contact us
Advertisement - Login to hide

Notes

Generated

Route

LIBD PAGUR CHI60 ROBAS LIML

ID Type Via Altitude Latitude Longitude Leg Dist Tot Dist Heading (true) Name
O LIBD APT - 0 ft / 0 m 41.13463˚ 16.74687˚ - 0 nm - -
PAGUR FIX - 0 ft / 0 m 42.45305˚ 14.54528˚ 126 nm 126 nm 310° / 308° -
CHI60 FIX - 0 ft / 0 m 44.18318˚ 11.56782˚ 166 nm 292 nm 310° / 308° -
ROBAS FIX - 0 ft / 0 m 45.19361˚ 9.72611˚ 99 nm 392 nm 308° / 307° -
O LIML APT - 0 ft / 0 m 45.45804˚ 9.26826˚ 25 nm 417 nm 310° / 309° -

Altitude Profile

Advertisement - Login to hide

Weather


0- 5 10 15 20 25 30 35+ Temperature / ° C

Clouds and Precipitation
Forecast for 2017-12-18 12:00 UTC. Updated 2 hours ago

Ground ~20,000 ft ~40,000 ft Winds

LIBD

Details ICAO LIBD (BRI)
Name Bari Palese Macchie
Region Italy
Timezone Europe/Rome (UTC+1.0)
Stats Elevation 177 ft / 54 m (AMSL)
Location 41.137865° 16.758318°
Runways 1
Magnetic Variation 3.738° E

METAR

LIBD 181250Z 32010KT 320V030 9000 FC SCT020CB SCT025 07/03 Q1018

Decode

TAF

TAF AMD LIBD 181305Z 1813/1912 31013KT 9999 SCT030 TEMPO 1813/1815 TSRA

Decode

Departure Runways

ID Width Length Bearing (true) Bearing (mag) Surface Threshold Offset Overrun Length
07 148 ft / 45 m 9,262 ft / 2,823 m 69.39° 65.65° Asphalt 1,257 ft / 383 m 0 ft / 0 m
25 148 ft / 45 m 9,262 ft / 2,823 m 249.42° 245.68° Asphalt 0 ft / 0 m 194 ft / 59 m

LIML

Details ICAO LIML (LIN)
Name Milano Linate
Region Italy
Timezone Europe/Rome (UTC+1.0)
Stats Elevation 353 ft / 108 m (AMSL)
Location 45.450302° 9.272801°
Runways 2
Magnetic Variation 2.502° E

METAR

LIML 181250Z 09004KT 060V120 9999 SCT090 04/M05 Q1022 NOSIG

Decode

TAF

TAF LIML 181100Z 1812/1912 VRB05KT 9999 SCT080 TEMPO 1902/1907 3000 BCFG

Decode

Destination Runways

ID Width Length Bearing (true) Bearing (mag) Surface Threshold Offset Overrun Length
17 72 ft / 22 m 1,975 ft / 602 m 175.64° 173.14° Asphalt 200 ft / 61 m 0 ft / 0 m
18 197 ft / 60 m 8,017 ft / 2,443 m 175.67° 173.17° Asphalt 0 ft / 0 m 190 ft / 58 m
35 72 ft / 22 m 1,975 ft / 602 m 355.64° 353.14° Asphalt 200 ft / 61 m 0 ft / 0 m
36 197 ft / 60 m 8,017 ft / 2,443 m 355.68° 353.18° Asphalt 0 ft / 0 m 980 ft / 299 m

Approach Navaids

Runway Type Ident Frequency Range Bearing (true) Bearing (mag) Slope Elevation
36 Localiser ILNT 109.55 MHz 18 nm / 33 km 355.68° 353.17° - 353 ft / 108 m (AMSL)
36 Glidescope ILNT 109.55 MHz 10 nm / 19 km 355.68° 353.17° 3.00° 352 ft / 107 m (AMSL)
36 DME ILNT 109.55 MHz 25 nm / 46 km - - - 352 ft / 107 m (AMSL)

Popular Alternatives